Cadiz, Kentucky
Current Conditions -  °F | °C
As of 8:10 AM on Monday 20 Oct 2014 (Local Time) from KHOP Reporting Station
Haze Haze  
Wind Chill: 50°   Ceiling: Unl
Heat Index: 50°   Visibility: 3mi
Dew Point: 50°   Wind: 2mph
Humidity: 100%   Direction: 180°S
Pressure: 30.08"   Gusts: NA
Location:  36.87°N, 87.84°W
Report Text: KHOP 201310Z 18002KT 3SM BR FEW130 SCT210 10/10 A3008 RMK AO2A
Loading
Personal Weather Stations






























Interactive Weather Map
Tropical Storm Tracking
New forecast layout! Learn more

10-Day Weather Forecast

Advertisements
Track Severe Weather on mobile